SBSP/CGH METAR and TAF weather

Enter ICAO airport designator
Station Type Date Time Source
SBSP METAR 2019/04/18 23:00 UTC NOAA

SBSP 182300Z 15007KT 9999 FEW013 19/16 Q1018


Station Type Date Time Source
SBSP Decoded METAR 2019/04/18 23:00 UTC NOAA

Sao Paulo/Congonhas Aeroporto, Brazil (SBSP) 23-37S 046-39W 802M
Apr 18, 2019 - 07:00 PM EDT / 2019.04.18 2300 UTC
Wind: from the SSE (150 degrees) at 8 MPH (7 KT):0
Visibility: greater than 7 mile(s):0
Sky conditions: mostly clear
Temperature: 66 F (19 C)
Dew Point: 60 F (16 C)
Relative Humidity: 82%
Pressure (altimeter): 30.06 in. Hg (1018 hPa)
ob: SBSP 182300Z 15007KT 9999 FEW013 19/16 Q1018
cycle: 23

Station Type Date Time Source
SBSP TAF 2019/04/18 18:42 UTC NOAA

TAF TAF SBSP 181630Z 1818/1918 21008KT 8000 FEW040 TN16/1908Z TX26/1917Z
BECMG 1819/1821 18009KT FEW015 PROB30 1821/1823 BKN011
BECMG 1901/1902 15003KT NSC
BECMG 1913/1915 FEW023
BECMG 1915/1917 26008KT FEW035
RMK PHG

Example: see airport list